createdAt,value
2023-06-10T00:00:33.490Z,120.77
2023-06-10T00:01:32.505Z,119.85
2023-06-10T00:02:32.678Z,118.40
2023-06-10T00:03:33.836Z,120.26
2023-06-10T00:04:32.649Z,121.59
2023-06-10T00:05:33.694Z,118.68
2023-06-10T00:06:33.728Z,119.77
2023-06-10T00:07:33.816Z,119.78
2023-06-10T00:08:33.824Z,122.28
2023-06-10T00:09:32.874Z,120.46
2023-06-10T00:10:32.891Z,120.42
2023-06-10T00:11:33.935Z,122.47
2023-06-10T00:12:34.008Z,120.84
2023-06-10T00:13:34.035Z,118.65
2023-06-10T00:14:34.093Z,119.55
2023-06-10T00:15:34.140Z,119.70
2023-06-10T00:16:34.235Z,119.33
2023-06-10T00:17:34.265Z,117.58
2023-06-10T00:18:34.311Z,118.46
2023-06-10T00:19:34.315Z,117.42
2023-06-10T00:20:33.358Z,120.50
2023-06-10T00:21:34.408Z,118.60
2023-06-10T00:22:34.455Z,117.63
2023-06-10T00:23:34.522Z,119.15
2023-06-10T00:24:33.596Z,117.79
2023-06-10T00:25:34.621Z,116.58
2023-06-10T00:26:33.645Z,119.93
2023-06-10T00:27:34.705Z,117.30
2023-06-10T00:28:34.743Z,115.69
2023-06-10T00:29:34.827Z,117.53
2023-06-10T00:30:34.874Z,117.29
2023-06-10T00:31:34.053Z,116.11
2023-06-10T00:32:34.016Z,115.75
2023-06-10T00:33:33.972Z,118.34
2023-06-10T00:34:34.048Z,115.72
2023-06-10T00:35:35.082Z,115.79
2023-06-10T00:36:35.121Z,113.95
2023-06-10T00:37:35.162Z,114.50
2023-06-10T00:38:35.214Z,115.98
2023-06-10T00:39:35.278Z,114.41
2023-06-10T00:40:35.352Z,117.20
2023-06-10T00:41:35.382Z,116.44
2023-06-10T00:42:35.471Z,114.87
2023-06-10T00:43:35.480Z,115.84
2023-06-10T00:44:35.542Z,116.30
2023-06-10T00:45:35.621Z,117.23
2023-06-10T00:46:34.699Z,116.71
2023-06-10T00:47:34.751Z,114.40
2023-06-10T00:48:35.744Z,116.86
2023-06-10T00:49:35.804Z,118.93
2023-06-10T00:50:35.915Z,115.73
2023-06-10T00:51:34.918Z,114.81
2023-06-10T00:52:35.986Z,118.62
2023-06-10T00:53:35.027Z,115.59
2023-06-10T00:54:36.080Z,116.19
2023-06-10T00:55:36.179Z,113.82
2023-06-10T00:56:36.201Z,115.35
2023-06-10T00:57:36.278Z,114.94
2023-06-10T00:58:36.330Z,116.01
2023-06-10T00:59:36.384Z,114.77
2023-06-10T01:00:36.448Z,114.84
2023-06-10T01:01:36.521Z,117.66
2023-06-10T01:02:36.666Z,114.86
2023-06-10T01:03:36.686Z,116.51
2023-06-10T01:04:36.658Z,113.80
2023-06-10T01:05:36.739Z,115.00
2023-06-10T01:06:36.792Z,113.90
2023-06-10T01:07:36.872Z,116.32
2023-06-10T01:08:36.872Z,115.48
2023-06-10T01:09:35.951Z,115.70
2023-06-10T01:10:37.004Z,114.18
2023-06-10T01:11:37.055Z,115.50
2023-06-10T01:12:37.093Z,116.26
2023-06-10T01:13:36.169Z,115.66
2023-06-10T01:14:37.271Z,113.12
2023-06-10T01:15:37.293Z,114.96
2023-06-10T01:16:37.477Z,116.97
2023-06-10T01:17:37.457Z,116.39
2023-06-10T01:18:37.447Z,116.97
2023-06-10T01:19:37.522Z,115.94
2023-06-10T01:20:37.568Z,115.53
2023-06-10T01:21:36.596Z,118.32
2023-06-10T01:22:36.689Z,115.84
2023-06-10T01:23:37.767Z,112.73
2023-06-10T01:24:36.774Z,115.90
2023-06-10T01:25:37.837Z,113.72
2023-06-10T01:26:37.898Z,115.45
2023-06-10T01:27:37.983Z,114.51
2023-06-10T01:28:38.023Z,112.29
2023-06-10T01:29:38.070Z,114.78
2023-06-10T01:30:38.137Z,112.34
2023-06-10T01:31:37.362Z,115.81
2023-06-10T01:32:37.326Z,115.47
2023-06-10T01:33:38.336Z,113.09
2023-06-10T01:34:38.387Z,115.72
2023-06-10T01:35:38.431Z,114.97
2023-06-10T01:36:37.509Z,113.48
2023-06-10T01:37:37.572Z,116.78
2023-06-10T01:38:37.637Z,111.40
2023-06-10T01:39:38.675Z,113.21
2023-06-10T01:40:38.740Z,115.87
2023-06-10T01:41:38.795Z,112.30
2023-06-10T01:42:38.888Z,115.47
2023-06-10T01:43:38.933Z,114.04
2023-06-10T01:44:38.979Z,110.25
2023-06-10T01:45:39.074Z,114.55
2023-06-10T01:46:39.157Z,114.57
2023-06-10T01:47:38.253Z,110.52
2023-06-10T01:48:39.257Z,112.94
2023-06-10T01:49:39.308Z,115.72
2023-06-10T01:50:39.404Z,119.13
2023-06-10T01:51:39.446Z,113.77
2023-06-10T01:52:39.523Z,115.15
2023-06-10T01:53:38.556Z,112.72
2023-06-10T01:54:39.646Z,115.04
2023-06-10T01:55:39.665Z,114.91
2023-06-10T01:56:39.742Z,113.51
2023-06-10T01:57:38.810Z,117.07
2023-06-10T01:58:39.868Z,116.57
2023-06-10T01:59:39.929Z,112.92
2023-06-10T02:00:40.020Z,112.36
2023-06-10T02:01:40.078Z,111.82
2023-06-10T02:02:40.190Z,113.68
2023-06-10T02:03:40.205Z,113.41
2023-06-10T02:04:40.241Z,110.16
2023-06-10T02:05:39.313Z,113.77
2023-06-10T02:06:40.378Z,110.52
2023-06-10T02:07:40.450Z,110.93
2023-06-10T02:08:40.494Z,113.70
2023-06-10T02:09:39.552Z,118.03
2023-06-10T02:10:40.655Z,112.59
2023-06-10T02:11:40.668Z,112.12
2023-06-10T02:12:40.749Z,112.97
2023-06-10T02:13:39.798Z,110.19
2023-06-10T02:14:39.882Z,115.14
2023-06-10T02:15:40.919Z,114.84
2023-06-10T02:16:41.027Z,115.43
2023-06-10T02:17:41.103Z,111.47
2023-06-10T02:18:41.058Z,114.23
2023-06-10T02:19:41.134Z,114.07
2023-06-10T02:20:41.182Z,111.92
2023-06-10T02:21:41.240Z,111.70
2023-06-10T02:22:41.283Z,112.55
2023-06-10T02:23:41.402Z,114.30
2023-06-10T02:24:41.392Z,112.44
2023-06-10T02:25:41.442Z,112.09
2023-06-10T02:26:41.518Z,112.58
2023-06-10T02:27:41.552Z,113.24
2023-06-10T02:28:41.586Z,113.44
2023-06-10T02:29:41.620Z,114.43
2023-06-10T02:30:41.634Z,112.90
2023-06-10T02:31:40.712Z,111.98
2023-06-10T02:32:40.713Z,112.08
2023-06-10T02:33:41.701Z,110.22
2023-06-10T02:34:41.712Z,113.30
2023-06-10T02:35:41.765Z,111.90
2023-06-10T02:36:40.765Z,109.89
2023-06-10T02:37:41.786Z,110.63
2023-06-10T02:38:41.810Z,110.96
2023-06-10T02:39:40.855Z,111.03
2023-06-10T02:40:41.869Z,110.73
2023-06-10T02:41:40.875Z,112.10
2023-06-10T02:42:41.928Z,111.32
2023-06-10T02:43:41.920Z,109.71
2023-06-10T02:44:41.933Z,111.83
2023-06-10T02:45:41.962Z,110.79
2023-06-10T02:46:41.023Z,108.28
2023-06-10T02:47:42.017Z,111.56
2023-06-10T02:48:41.029Z,109.50
2023-06-10T02:49:41.044Z,108.36
2023-06-10T02:50:42.085Z,109.16
2023-06-10T02:51:41.067Z,110.22
2023-06-10T02:52:42.110Z,109.44
2023-06-10T02:53:41.122Z,108.86
2023-06-10T02:54:41.140Z,109.81
2023-06-10T02:55:42.148Z,110.97
2023-06-10T02:56:41.179Z,111.17
2023-06-10T02:57:42.186Z,110.72
2023-06-10T02:58:42.246Z,109.53
2023-06-10T02:59:42.225Z,109.39
2023-06-10T03:00:42.284Z,110.34
2023-06-10T03:01:42.282Z,109.15
2023-06-10T03:02:42.269Z,108.44
2023-06-10T03:03:43.106Z,109.59
2023-06-10T03:04:42.249Z,110.03
2023-06-10T03:05:42.261Z,108.03
2023-06-10T03:06:42.260Z,109.60
2023-06-10T03:07:42.269Z,108.58
2023-06-10T03:08:42.250Z,107.96
2023-06-10T03:09:43.945Z,107.80
2023-06-10T03:10:42.254Z,107.99
2023-06-10T03:11:42.245Z,108.55
2023-06-10T03:12:42.244Z,109.15
2023-06-10T03:13:42.236Z,108.55
2023-06-10T03:14:42.271Z,109.61
2023-06-10T03:15:42.273Z,110.35
2023-06-10T03:16:41.285Z,108.67
2023-06-10T03:17:42.232Z,107.45
2023-06-10T03:18:42.239Z,109.42
2023-06-10T03:19:42.190Z,110.80
2023-06-10T03:20:42.187Z,108.69
2023-06-10T03:21:42.165Z,109.63
2023-06-10T03:22:41.183Z,109.29
2023-06-10T03:23:42.196Z,108.64
2023-06-10T03:24:42.157Z,107.17
2023-06-10T03:25:42.140Z,109.48
2023-06-10T03:26:42.128Z,109.08
2023-06-10T03:27:41.121Z,108.70
2023-06-10T03:28:41.157Z,107.86
2023-06-10T03:29:41.119Z,108.42
2023-06-10T03:30:42.134Z,107.79
2023-06-10T03:31:42.134Z,106.84
2023-06-10T03:32:42.285Z,107.53
2023-06-10T03:33:42.078Z,109.02
2023-06-10T03:34:42.100Z,108.34
2023-06-10T03:35:42.093Z,105.60
2023-06-10T03:36:42.076Z,107.02
2023-06-10T03:37:42.063Z,106.98
2023-06-10T03:38:42.074Z,106.48
2023-06-10T03:39:41.051Z,107.10
2023-06-10T03:40:42.048Z,108.17
2023-06-10T03:41:42.031Z,108.84
2023-06-10T03:42:41.038Z,108.12
2023-06-10T03:43:42.046Z,107.66
2023-06-10T03:44:42.006Z,107.51
2023-06-10T03:45:42.055Z,110.42
2023-06-10T03:46:42.027Z,108.08
2023-06-10T03:47:41.046Z,110.01
2023-06-10T03:48:40.973Z,105.92
2023-06-10T03:49:41.982Z,107.81
2023-06-10T03:50:41.980Z,105.85
2023-06-10T03:51:40.973Z,108.12
2023-06-10T03:52:41.958Z,104.36
2023-06-10T03:53:41.969Z,108.52
2023-06-10T03:54:41.932Z,107.94
2023-06-10T03:55:41.932Z,105.03
2023-06-10T03:56:41.919Z,106.59
2023-06-10T03:57:41.938Z,106.31
2023-06-10T03:58:42.679Z,106.87
2023-06-10T03:59:41.915Z,110.20
2023-06-10T04:00:40.918Z,111.29
2023-06-10T04:01:40.977Z,108.01
2023-06-10T04:02:42.002Z,110.20
2023-06-10T04:03:41.881Z,109.68
2023-06-10T04:04:40.870Z,107.90
2023-06-10T04:05:41.930Z,108.72
2023-06-10T04:06:41.862Z,108.18
2023-06-10T04:07:41.847Z,108.74
2023-06-10T04:08:40.836Z,108.45
2023-06-10T04:09:41.843Z,107.77
2023-06-10T04:10:41.844Z,106.88
2023-06-10T04:11:41.818Z,103.52
2023-06-10T04:12:40.829Z,102.54
2023-06-10T04:13:41.808Z,104.50
2023-06-10T04:14:41.811Z,103.11
2023-06-10T04:15:41.808Z,102.57
2023-06-10T04:16:41.831Z,104.43
2023-06-10T04:17:41.884Z,106.73
2023-06-10T04:18:42.571Z,103.82
2023-06-10T04:19:41.765Z,103.82
2023-06-10T04:20:40.762Z,104.24
2023-06-10T04:21:41.764Z,105.53
2023-06-10T04:22:41.758Z,102.16
2023-06-10T04:23:41.770Z,101.89
2023-06-10T04:24:41.755Z,103.54
2023-06-10T04:25:41.735Z,100.98
2023-06-10T04:26:41.716Z,103.17
2023-06-10T04:27:41.728Z,100.52
2023-06-10T04:28:41.727Z,107.58
2023-06-10T04:29:40.722Z,99.81
2023-06-10T04:30:41.710Z,103.79
2023-06-10T04:31:41.761Z,100.52
2023-06-10T04:32:41.745Z,102.15
2023-06-10T04:33:41.675Z,99.91
2023-06-10T04:34:41.697Z,98.95
2023-06-10T04:35:41.684Z,97.51
2023-06-10T04:36:41.671Z,101.15
2023-06-10T04:37:40.677Z,103.25
2023-06-10T04:38:41.640Z,104.30
2023-06-10T04:39:41.657Z,100.22
2023-06-10T04:40:41.711Z,101.35
2023-06-10T04:41:41.641Z,101.88
2023-06-10T04:42:40.617Z,102.22
2023-06-10T04:43:41.607Z,103.80
2023-06-10T04:44:41.610Z,101.67
2023-06-10T04:45:41.600Z,102.97
2023-06-10T04:46:41.657Z,99.06
2023-06-10T04:47:41.657Z,103.23
2023-06-10T04:48:41.574Z,103.12
2023-06-10T04:49:41.573Z,104.55
2023-06-10T04:50:41.607Z,100.29
2023-06-10T04:51:41.570Z,100.33
2023-06-10T04:52:41.588Z,100.13
2023-06-10T04:53:40.542Z,102.03
2023-06-10T04:54:41.542Z,103.96
2023-06-10T04:55:41.555Z,101.54
2023-06-10T04:56:41.529Z,101.77
2023-06-10T04:57:40.521Z,99.95
2023-06-10T04:58:41.526Z,102.87
2023-06-10T04:59:40.504Z,102.37
2023-06-10T05:00:41.507Z,103.01
2023-06-10T05:01:41.523Z,99.33
2023-06-10T05:02:41.546Z,101.70
2023-06-10T05:03:40.546Z,100.35
2023-06-10T05:04:41.462Z,101.79
2023-06-10T05:05:41.507Z,98.53
2023-06-10T05:06:41.516Z,101.68
2023-06-10T05:07:40.526Z,97.43
2023-06-10T05:08:41.516Z,97.18
2023-06-10T05:09:41.517Z,103.00
2023-06-10T05:10:41.555Z,100.61
2023-06-10T05:11:41.561Z,102.05
2023-06-10T05:12:41.557Z,99.77
2023-06-10T05:13:41.583Z,101.18
2023-06-10T05:14:40.591Z,100.86
2023-06-10T05:15:40.593Z,101.41
2023-06-10T05:16:40.780Z,101.36
2023-06-10T05:17:41.691Z,99.23
2023-06-10T05:18:41.625Z,100.20
2023-06-10T05:19:41.656Z,98.89
2023-06-10T05:20:41.683Z,98.62
2023-06-10T05:21:41.683Z,100.71
2023-06-10T05:22:40.722Z,102.67
2023-06-10T05:23:40.751Z,100.92
2023-06-10T05:24:40.736Z,98.72
2023-06-10T05:25:41.732Z,99.90
2023-06-10T05:26:41.777Z,101.03
2023-06-10T05:27:41.764Z,101.43
2023-06-10T05:28:41.785Z,102.11
2023-06-10T05:29:40.772Z,98.77
2023-06-10T05:30:41.812Z,99.83
2023-06-10T05:31:41.853Z,99.47
2023-06-10T05:32:41.856Z,99.60
2023-06-10T05:33:41.822Z,102.15
2023-06-10T05:34:41.818Z,97.48
2023-06-10T05:35:41.831Z,101.40
2023-06-10T05:36:40.829Z,98.98
2023-06-10T05:37:41.837Z,98.44
2023-06-10T05:38:40.862Z,97.89
2023-06-10T05:39:41.868Z,98.61
2023-06-10T05:40:41.870Z,99.63
2023-06-10T05:41:41.911Z,98.84
2023-06-10T05:42:41.894Z,99.06
2023-06-10T05:43:41.894Z,99.96
2023-06-10T05:44:41.889Z,100.79
2023-06-10T05:45:41.911Z,97.80
2023-06-10T05:46:41.904Z,99.44
2023-06-10T05:47:40.980Z,98.09
2023-06-10T05:48:41.930Z,97.68
2023-06-10T05:49:41.920Z,99.92
2023-06-10T05:50:41.937Z,99.67
2023-06-10T05:51:40.925Z,98.83
2023-06-10T05:52:41.937Z,99.06
2023-06-10T05:53:41.927Z,98.19
2023-06-10T05:54:40.971Z,98.79
2023-06-10T05:55:41.946Z,101.15
2023-06-10T05:56:41.948Z,96.49
2023-06-10T05:57:40.959Z,95.36
2023-06-10T05:58:41.965Z,99.77
2023-06-10T05:59:41.951Z,102.48
2023-06-10T06:00:41.995Z,98.16
2023-06-10T06:01:40.970Z,97.48
2023-06-10T06:02:42.284Z,98.07
2023-06-10T06:03:42.097Z,100.04
2023-06-10T06:04:40.999Z,98.91
2023-06-10T06:05:40.983Z,100.00
2023-06-10T06:06:41.975Z,99.19
2023-06-10T06:07:40.984Z,98.28
2023-06-10T06:08:41.970Z,97.82
2023-06-10T06:09:41.975Z,98.35
2023-06-10T06:10:42.015Z,99.54
2023-06-10T06:11:40.996Z,97.55
2023-06-10T06:12:41.977Z,97.31
2023-06-10T06:13:40.965Z,102.10
2023-06-10T06:14:41.990Z,100.10
2023-06-10T06:15:42.011Z,98.00
2023-06-10T06:16:41.982Z,98.58
2023-06-10T06:17:42.014Z,98.57
2023-06-10T06:18:40.961Z,98.19
2023-06-10T06:19:41.941Z,98.72
2023-06-10T06:20:40.953Z,99.80
2023-06-10T06:21:40.969Z,100.21
2023-06-10T06:22:41.934Z,98.83
2023-06-10T06:23:42.042Z,100.42
2023-06-10T06:24:41.087Z,98.24
2023-06-10T06:25:41.920Z,97.72
2023-06-10T06:26:41.954Z,99.01
2023-06-10T06:27:41.907Z,101.84
2023-06-10T06:28:40.896Z,100.93
2023-06-10T06:29:41.894Z,98.85
2023-06-10T06:30:41.902Z,99.70
2023-06-10T06:31:41.972Z,102.59
2023-06-10T06:32:41.946Z,102.15
2023-06-10T06:33:41.912Z,100.92
2023-06-10T06:34:41.900Z,98.48
2023-06-10T06:35:40.893Z,98.82
2023-06-10T06:36:40.881Z,102.23
2023-06-10T06:37:41.869Z,98.14
2023-06-10T06:38:41.871Z,98.79
2023-06-10T06:39:41.879Z,99.93
2023-06-10T06:40:41.868Z,98.57
2023-06-10T06:41:41.868Z,98.80
2023-06-10T06:42:41.896Z,97.16
2023-06-10T06:43:41.859Z,99.14
2023-06-10T06:44:41.896Z,98.52
2023-06-10T06:45:41.851Z,99.17
2023-06-10T06:46:41.843Z,98.27
2023-06-10T06:47:41.965Z,100.63
2023-06-10T06:48:42.163Z,98.94
2023-06-10T06:49:41.918Z,96.81
2023-06-10T06:50:40.928Z,100.08
2023-06-10T06:51:40.967Z,96.15
2023-06-10T06:52:41.999Z,98.49
2023-06-10T06:53:42.052Z,98.45
2023-06-10T06:54:41.087Z,95.94
2023-06-10T06:55:42.156Z,98.06
2023-06-10T06:56:41.214Z,96.33
2023-06-10T06:57:42.296Z,96.08
2023-06-10T06:58:42.342Z,95.43
2023-06-10T06:59:42.372Z,96.65
2023-06-10T07:00:42.455Z,94.90
2023-06-10T07:01:42.504Z,96.38
2023-06-10T07:02:42.615Z,94.81
2023-06-10T07:03:42.627Z,95.34
2023-06-10T07:04:42.727Z,93.35
2023-06-10T07:05:42.789Z,95.83
2023-06-10T07:06:42.772Z,96.42
2023-06-10T07:07:42.826Z,96.43
2023-06-10T07:08:42.866Z,96.91
2023-06-10T07:09:42.913Z,95.25
2023-06-10T07:10:42.993Z,97.49
2023-06-10T07:11:43.010Z,96.87
2023-06-10T07:12:43.075Z,96.72
2023-06-10T07:13:43.113Z,96.89
2023-06-10T07:14:43.205Z,95.77
2023-06-10T07:15:43.245Z,96.75
2023-06-10T07:16:43.311Z,93.45
2023-06-10T07:17:43.388Z,97.53
2023-06-10T07:18:43.444Z,96.51
2023-06-10T07:19:43.490Z,96.73
2023-06-10T07:20:43.543Z,95.25
2023-06-10T07:21:42.597Z,96.35
2023-06-10T07:22:43.708Z,93.09
2023-06-10T07:23:43.801Z,96.76
2023-06-10T07:24:43.785Z,97.03
2023-06-10T07:25:43.885Z,95.41
2023-06-10T07:26:43.924Z,94.36
2023-06-10T07:27:44.008Z,99.29
2023-06-10T07:28:44.059Z,97.26
2023-06-10T07:29:43.096Z,95.15
2023-06-10T07:30:44.224Z,96.37
2023-06-10T07:31:43.226Z,93.55
2023-06-10T07:32:44.305Z,96.37
2023-06-10T07:33:44.398Z,91.07
2023-06-10T07:34:44.430Z,94.54
2023-06-10T07:35:44.500Z,92.90
2023-06-10T07:36:44.537Z,96.12
2023-06-10T07:37:44.585Z,94.11
2023-06-10T07:38:44.645Z,93.44
2023-06-10T07:39:44.713Z,92.10
2023-06-10T07:40:43.794Z,91.62
2023-06-10T07:41:44.838Z,90.66
2023-06-10T07:42:44.908Z,96.03
2023-06-10T07:43:43.967Z,93.84
2023-06-10T07:44:44.027Z,93.82
2023-06-10T07:45:45.087Z,93.29
2023-06-10T07:46:45.289Z,93.77
2023-06-10T07:47:45.252Z,93.97
2023-06-10T07:48:45.300Z,95.33
2023-06-10T07:49:45.381Z,95.15
2023-06-10T07:50:45.405Z,91.34
2023-06-10T07:51:45.445Z,91.40
2023-06-10T07:52:45.530Z,92.12
2023-06-10T07:53:45.569Z,91.65
2023-06-10T07:54:45.638Z,93.93
2023-06-10T07:55:45.673Z,94.04
2023-06-10T07:56:45.769Z,91.81
2023-06-10T07:57:45.789Z,94.05
2023-06-10T07:58:44.846Z,91.46
2023-06-10T07:59:44.897Z,92.24
2023-06-10T08:00:45.945Z,93.00
2023-06-10T08:01:46.013Z,92.53
2023-06-10T08:02:46.159Z,91.88
2023-06-10T08:03:45.370Z,92.31
2023-06-10T08:04:45.222Z,93.28
2023-06-10T08:05:46.214Z,95.05
2023-06-10T08:06:45.258Z,90.43
2023-06-10T08:07:45.316Z,92.38
2023-06-10T08:08:46.366Z,89.79
2023-06-10T08:09:45.546Z,89.49
2023-06-10T08:10:46.465Z,91.18
2023-06-10T08:11:46.511Z,89.19
2023-06-10T08:12:46.591Z,88.90
2023-06-10T08:13:46.601Z,90.10
2023-06-10T08:14:46.655Z,91.29
2023-06-10T08:15:46.710Z,88.53
2023-06-10T08:16:46.817Z,90.23
2023-06-10T08:17:46.842Z,88.44
2023-06-10T08:18:46.861Z,87.06
2023-06-10T08:19:46.884Z,88.85
2023-06-10T08:20:46.940Z,89.20
2023-06-10T08:21:46.980Z,87.30
2023-06-10T08:22:47.021Z,89.52
2023-06-10T08:23:47.126Z,88.71
2023-06-10T08:24:49.471Z,86.49
2023-06-10T08:25:47.112Z,93.10
2023-06-10T08:26:47.100Z,94.26
2023-06-10T08:27:47.090Z,89.10
2023-06-10T08:28:47.090Z,89.80
2023-06-10T08:29:46.080Z,91.06
2023-06-10T08:30:47.069Z,91.71
2023-06-10T08:31:47.084Z,90.92
2023-06-10T08:32:47.088Z,91.82
2023-06-10T08:33:46.043Z,92.60
2023-06-10T08:34:47.059Z,92.19
2023-06-10T08:35:47.044Z,93.20
2023-06-10T08:36:47.015Z,93.34
2023-06-10T08:37:46.011Z,92.48
2023-06-10T08:38:46.005Z,93.00
2023-06-10T08:39:46.987Z,90.36
2023-06-10T08:40:45.984Z,90.55
2023-06-10T08:41:46.981Z,92.31
2023-06-10T08:42:46.990Z,89.52
2023-06-10T08:43:46.963Z,87.94
2023-06-10T08:44:46.965Z,89.80
2023-06-10T08:45:46.968Z,89.84
2023-06-10T08:46:46.965Z,90.46
2023-06-10T08:47:47.085Z,93.13
2023-06-10T08:48:46.957Z,90.49
2023-06-10T08:49:46.957Z,86.48
2023-06-10T08:50:45.929Z,91.79
2023-06-10T08:51:46.910Z,93.25
2023-06-10T08:52:45.897Z,89.69
2023-06-10T08:53:46.899Z,89.53
2023-06-10T08:54:46.879Z,91.94
2023-06-10T08:55:46.890Z,91.78
2023-06-10T08:56:46.873Z,90.56
2023-06-10T08:57:46.881Z,87.85
2023-06-10T08:58:46.871Z,93.71
2023-06-10T08:59:45.980Z,90.78
2023-06-10T09:00:46.841Z,88.24
2023-06-10T09:01:46.864Z,89.95
2023-06-10T09:02:46.862Z,87.00
2023-06-10T09:03:46.875Z,88.26
2023-06-10T09:04:46.005Z,87.84
2023-06-10T09:05:46.923Z,89.41
2023-06-10T09:06:46.975Z,92.05
2023-06-10T09:07:46.965Z,91.05
2023-06-10T09:08:46.997Z,93.73
2023-06-10T09:09:47.010Z,90.90
2023-06-10T09:10:47.029Z,89.44
2023-06-10T09:11:47.063Z,89.80
2023-06-10T09:12:47.076Z,92.54
2023-06-10T09:13:46.118Z,95.11
2023-06-10T09:14:47.123Z,91.52
2023-06-10T09:15:46.228Z,91.22
2023-06-10T09:16:47.222Z,92.02
2023-06-10T09:17:47.222Z,91.55
2023-06-10T09:18:47.217Z,91.52
2023-06-10T09:19:46.212Z,91.68
2023-06-10T09:20:47.252Z,93.11
2023-06-10T09:21:47.256Z,93.06
2023-06-10T09:22:47.402Z,91.09
2023-06-10T09:23:46.330Z,94.69
2023-06-10T09:24:47.325Z,95.91
2023-06-10T09:25:47.369Z,92.06
2023-06-10T09:26:46.379Z,96.20
2023-06-10T09:27:46.362Z,95.54
2023-06-10T09:28:47.390Z,95.64
2023-06-10T09:29:47.442Z,99.02
2023-06-10T09:30:47.433Z,94.45
2023-06-10T09:31:47.487Z,93.52
2023-06-10T09:32:47.540Z,94.41
2023-06-10T09:33:47.512Z,92.85
2023-06-10T09:34:47.537Z,93.17
2023-06-10T09:35:47.648Z,94.40
2023-06-10T09:36:47.577Z,94.40
2023-06-10T09:37:47.604Z,93.29
2023-06-10T09:38:47.640Z,91.93
2023-06-10T09:39:47.672Z,93.71
2023-06-10T09:40:47.684Z,93.65
2023-06-10T09:41:47.786Z,93.78
2023-06-10T09:42:47.719Z,95.30
2023-06-10T09:43:47.793Z,94.21
2023-06-10T09:44:47.747Z,91.33
2023-06-10T09:45:47.832Z,92.37
2023-06-10T09:46:47.818Z,92.21
2023-06-10T09:47:47.840Z,92.82
2023-06-10T09:48:47.820Z,92.04
2023-06-10T09:49:46.836Z,92.85
2023-06-10T09:50:47.893Z,92.30
2023-06-10T09:51:47.895Z,93.40
2023-06-10T09:52:47.897Z,93.54
2023-06-10T09:53:47.909Z,98.33
2023-06-10T09:54:46.950Z,94.16
2023-06-10T09:55:46.935Z,92.57
2023-06-10T09:56:47.950Z,94.43
2023-06-10T09:57:48.081Z,94.19
2023-06-10T09:58:46.988Z,92.21
2023-06-10T09:59:47.990Z,97.06
2023-06-10T10:00:48.034Z,93.94
2023-06-10T10:01:48.059Z,92.28
2023-06-10T10:02:48.132Z,94.62
2023-06-10T10:03:48.021Z,96.73
2023-06-10T10:04:48.165Z,95.50
2023-06-10T10:05:48.265Z,92.50
2023-06-10T10:06:47.047Z,96.09
2023-06-10T10:07:48.065Z,94.09
2023-06-10T10:08:48.097Z,95.90
2023-06-10T10:09:48.070Z,92.23
2023-06-10T10:10:48.098Z,94.98
2023-06-10T10:11:48.139Z,93.49
2023-06-10T10:12:47.106Z,93.63
2023-06-10T10:13:48.104Z,93.32
2023-06-10T10:14:48.195Z,93.93
2023-06-10T10:15:47.118Z,97.98
2023-06-10T10:16:48.190Z,96.94
2023-06-10T10:17:48.230Z,93.74
2023-06-10T10:18:48.187Z,95.94
2023-06-10T10:19:48.163Z,95.30
2023-06-10T10:20:48.165Z,98.26
2023-06-10T10:21:48.170Z,95.30
2023-06-10T10:22:47.164Z,95.81
2023-06-10T10:23:47.305Z,97.37
2023-06-10T10:24:47.190Z,97.87
2023-06-10T10:25:48.300Z,95.48
2023-06-10T10:26:47.202Z,95.30
2023-06-10T10:27:47.226Z,95.37
2023-06-10T10:28:48.201Z,95.35
2023-06-10T10:29:48.201Z,95.72
2023-06-10T10:30:48.247Z,96.69
2023-06-10T10:31:48.243Z,95.35
2023-06-10T10:32:48.258Z,95.54
2023-06-10T10:33:48.266Z,96.93
2023-06-10T10:34:48.184Z,95.68
2023-06-10T10:35:48.198Z,97.54
2023-06-10T10:36:48.290Z,97.90
2023-06-10T10:37:48.200Z,97.74
2023-06-10T10:38:47.828Z,95.88
2023-06-10T10:39:48.219Z,97.81
2023-06-10T10:40:48.241Z,97.02
2023-06-10T10:41:47.285Z,96.39
2023-06-10T10:42:48.287Z,97.63
2023-06-10T10:43:47.311Z,96.86
2023-06-10T10:44:48.231Z,98.61
2023-06-10T10:45:48.253Z,97.53
2023-06-10T10:46:48.249Z,95.62
2023-06-10T10:47:48.254Z,97.82
2023-06-10T10:48:48.227Z,98.27
2023-06-10T10:49:48.260Z,98.84
2023-06-10T10:50:48.206Z,98.35
2023-06-10T10:51:47.232Z,96.91
2023-06-10T10:52:48.214Z,96.73
2023-06-10T10:53:48.269Z,99.15
2023-06-10T10:54:48.248Z,96.76
2023-06-10T10:55:48.229Z,98.46
2023-06-10T10:56:47.244Z,97.88
2023-06-10T10:57:48.192Z,99.04
2023-06-10T10:58:48.225Z,97.22
2023-06-10T10:59:47.181Z,97.67
2023-06-10T11:00:48.273Z,95.32
2023-06-10T11:01:48.278Z,96.99
2023-06-10T11:02:47.515Z,97.45
2023-06-10T11:03:47.408Z,98.29
2023-06-10T11:04:47.605Z,97.23
2023-06-10T11:05:48.162Z,96.33
2023-06-10T11:06:48.246Z,98.03
2023-06-10T11:07:47.234Z,96.13
2023-06-10T11:08:48.219Z,97.88
2023-06-10T11:09:48.179Z,97.85
2023-06-10T11:10:47.208Z,98.27
2023-06-10T11:11:48.170Z,97.64
2023-06-10T11:12:48.146Z,99.95
2023-06-10T11:13:48.140Z,94.75
2023-06-10T11:14:48.173Z,100.67
2023-06-10T11:15:48.426Z,99.27
2023-06-10T11:16:48.149Z,98.86
2023-06-10T11:17:48.170Z,98.01
2023-06-10T11:18:48.140Z,97.67
2023-06-10T11:19:47.125Z,98.13
2023-06-10T11:20:47.120Z,97.82
2023-06-10T11:21:48.194Z,93.71
2023-06-10T11:22:48.158Z,95.20
2023-06-10T11:23:48.231Z,95.24
2023-06-10T11:24:48.228Z,93.09
2023-06-10T11:25:48.133Z,97.97
2023-06-10T11:26:48.160Z,92.94
2023-06-10T11:27:48.200Z,88.73
2023-06-10T11:28:48.246Z,89.87
2023-06-10T11:29:48.259Z,96.34
2023-06-10T11:30:48.274Z,96.59
2023-06-10T11:31:48.296Z,99.50
2023-06-10T11:32:47.442Z,101.07
2023-06-10T11:33:48.345Z,101.62
2023-06-10T11:34:48.353Z,96.56
2023-06-10T11:35:48.359Z,96.87
2023-06-10T11:36:48.397Z,93.71
2023-06-10T11:37:48.361Z,93.96
2023-06-10T11:38:48.372Z,88.38
2023-06-10T11:39:47.382Z,88.39
2023-06-10T11:40:47.355Z,85.38
2023-06-10T11:41:48.351Z,91.93
2023-06-10T11:42:48.380Z,82.91
2023-06-10T11:43:48.357Z,96.11
2023-06-10T11:44:47.359Z,86.95
2023-06-10T11:45:48.418Z,85.90
2023-06-10T11:46:47.477Z,85.67
2023-06-10T11:47:47.466Z,80.89
2023-06-10T11:48:47.420Z,90.90
2023-06-10T11:49:49.423Z,91.77
2023-06-10T11:50:47.422Z,88.40
2023-06-10T11:51:48.400Z,94.67
2023-06-10T11:52:47.410Z,84.39
2023-06-10T11:53:47.406Z,83.40
2023-06-10T11:54:48.377Z,82.52
2023-06-10T11:55:48.385Z,91.51
2023-06-10T11:56:48.404Z,79.57
2023-06-10T11:57:48.364Z,80.42
2023-06-10T11:58:48.370Z,80.42
2023-06-10T11:59:48.348Z,81.84
2023-06-10T12:00:48.342Z,77.69
2023-06-10T12:01:47.665Z,80.52
2023-06-10T12:02:47.481Z,81.41
2023-06-10T12:03:48.425Z,87.09
2023-06-10T12:04:48.320Z,81.44
2023-06-10T12:05:48.353Z,74.11
2023-06-10T12:06:48.312Z,73.32
2023-06-10T12:07:48.307Z,81.87
2023-06-10T12:08:48.296Z,77.89
2023-06-10T12:09:48.275Z,75.84
2023-06-10T12:10:47.283Z,79.09
2023-06-10T12:11:47.281Z,76.89
2023-06-10T12:12:48.263Z,74.68
2023-06-10T12:13:47.258Z,78.58
2023-06-10T12:14:48.251Z,77.02
2023-06-10T12:15:48.254Z,75.74
2023-06-10T12:16:48.229Z,78.23
2023-06-10T12:17:48.259Z,72.37
2023-06-10T12:18:48.971Z,73.33
2023-06-10T12:19:48.846Z,72.32
2023-06-10T12:20:47.256Z,73.61
2023-06-10T12:21:48.280Z,76.12
2023-06-10T12:22:48.337Z,72.23
2023-06-10T12:23:48.365Z,73.84
2023-06-10T12:24:47.381Z,73.79
2023-06-10T12:25:47.387Z,80.38
2023-06-10T12:26:48.412Z,81.43
2023-06-10T12:27:48.459Z,72.59
2023-06-10T12:28:48.494Z,74.45
2023-06-10T12:29:47.537Z,73.86
2023-06-10T12:30:48.583Z,74.79
2023-06-10T12:31:48.665Z,80.77
2023-06-10T12:32:47.778Z,80.74
2023-06-10T12:33:48.701Z,76.63
2023-06-10T12:34:48.774Z,75.43
2023-06-10T12:35:48.847Z,73.37
2023-06-10T12:36:48.861Z,73.29
2023-06-10T12:37:47.938Z,82.56
2023-06-10T12:38:47.951Z,75.75
2023-06-10T12:39:49.013Z,79.56
2023-06-10T12:40:49.077Z,70.55
2023-06-10T12:41:49.130Z,75.51